Terminal Aerodrome Forecast
Issued by NWS

Home | Current Version | Previous Version | Text Only | Print | Product List | Glossary On
Versions: 1 2 3 4 5 6 7 8 9 10 11 12 13 14 15 16 17 18 19
000
FTUS45 KPSR 271500 AAA
TAFPHX
TAF AMD
KPHX 271508Z 2715/2812 VRB03KT P6SM SKC
     FM272100 27006KT P6SM SKC
     FM280500 10004KT P6SM FEW200=

USA.gov is the U.S. government's official web portal to all federal, state and local government web resources and services.